Terminal Aerodrome Forecast
Issued by NWS

Home | Current Version | Previous Version | Text Only | Print | Product List | Glossary On
Versions: 1 2 3 4 5 6 7 8 9 10 11 12
000
FTUS45 KRIW 312300
TAFWRL
TAF
KWRL 312329Z 0100/0124 VRB05KT P6SM SCT130 BKN200
     FM010300 16007KT P6SM SCT130 BKN200
     FM010800 15004KT P6SM BKN150
     FM011800 18008KT P6SM SCT060 BKN150
     FM012300 16014KT P6SM SCT040 BKN120=

USA.gov is the U.S. government's official web portal to all federal, state and local government web resources and services.